Weather observations for the past three days for
Port Angeles Fairchild International Airport
| Date | Time (pdt) | Wind (kph) | Vis. (km) | Weather | Sky Cond. | Temperature (ºC) | Relative Humidity | Wind Chill (°C) | Heat Index (°C) | Pressure | Precipitation (cm) | ||||||
|---|---|---|---|---|---|---|---|---|---|---|---|---|---|---|---|---|---|
| Air | Dwpt | 6 hour | altimeter (cm) | sea level (mb) | 1 hr | 3 hr | 6 hr | ||||||||||
| Max. | Min. | ||||||||||||||||
| 04 | 14:53 | NW 15 | 16.09 | Fair | CLR | 19.4 | 10 | 55% | 75.82 | 1010.6 | |||||||
| 04 | 13:53 | NW 13 | 16.09 | Fair | CLR | 18.9 | 10 | 56% | 75.84 | 1010.9 | |||||||
| 04 | 12:53 | W 15 | 16.09 | Fair | CLR | 17.8 | 9.4 | 58% | 75.84 | 1011.1 | |||||||
| 04 | 11:53 | N 7 | 16.09 | Fair | CLR | 19.4 | 8.9 | 51% | 75.82 | 1010.9 | |||||||
| 04 | 10:53 | Vrbl 9 | 16.09 | Fair | CLR | 17.8 | 7.8 | 22.8 | 8.3 | 52% | 75.84 | 1011.0 | |||||
| 04 | 09:53 | E 9 | 16.09 | Fair | CLR | 22.2 | 8.3 | 41% | 75.84 | 1011.0 | |||||||
| 04 | 08:53 | E 6 | 16.09 | Fair | CLR | 21.1 | 6.1 | 38% | 75.82 | 1010.8 | |||||||
| 04 | 07:53 | SW 11 | 16.09 | Fair | CLR | 17.2 | 6.1 | 48% | 75.79 | 1010.2 | |||||||
| 04 | 06:53 | SW 13 | 16.09 | Fair | CLR | 14.4 | 4.4 | 51% | 75.77 | 1010.0 | |||||||
| 04 | 05:53 | SW 11 | 16.09 | Fair | CLR | 9.4 | 5 | 74% | 8 | 75.74 | 1009.8 | ||||||
| 04 | 04:53 | Calm | 16.09 | Fair | CLR | 10.6 | 4.4 | 17.2 | 10 | 66% | 75.74 | 1009.6 | |||||
| 04 | 03:53 | Calm | 16.09 | Fair | CLR | 11.1 | 4.4 | 64% | 75.74 | 1009.6 | |||||||
| 04 | 02:53 | SW 9 | 16.09 | Fair | CLR | 15.6 | 4.4 | 48% | 75.69 | 1009.1 | |||||||
| 04 | 01:53 | SW 17 | 16.09 | Fair | CLR | 16.7 | 4.4 | 44% | 75.69 | 1009.1 | |||||||
| 04 | 00:53 | SW 13 | 16.09 | Fair | CLR | 15 | 5 | 51% | 75.72 | 1009.4 | |||||||
| 03 | 23:53 | SW 6 | 16.09 | Fair | CLR | 12.2 | 6.1 | 67% | 75.74 | 1009.8 | |||||||
| 03 | 22:53 | SW 7 | 16.09 | Fair | CLR | 13.3 | 6.7 | 25.6 | 11.7 | 65% | 75.77 | 1010.1 | |||||
| 03 | 21:53 | Calm | 16.09 | Fair | CLR | 14.4 | 6.7 | 60% | 75.77 | 1010.0 | |||||||
| 03 | 20:53 | SW 9 | 16.09 | Fair | CLR | 16.7 | 8.3 | 58% | 75.74 | 1009.7 | |||||||
| 03 | 19:53 | Calm | 16.09 | Fair | CLR | 22.8 | 5.6 | 33% | 75.74 | 1009.6 | |||||||
| 03 | 18:53 | E 6 | 16.09 | Fair | CLR | 25.6 | 6.1 | 29% | 26 | 75.77 | 1010.0 | ||||||
| 03 | 17:53 | E 11 | 16.09 | Fair | CLR | 24.4 | 3.3 | 25% | 25 | 75.84 | 1010.9 | ||||||
| 03 | 16:53 | E 11 | 16.09 | Fair | CLR | 24.4 | 5.6 | 24.4 | 20.6 | 30% | 25 | 75.87 | 1011.2 | ||||
| 03 | 15:53 | E 13 | 16.09 | Fair | CLR | 23.3 | 6.1 | 33% | 75.92 | 1011.9 | |||||||
| 03 | 14:53 | E 15 | 16.09 | Fair | CLR | 23.3 | 7.2 | 36% | 75.97 | 1012.8 | |||||||
| 03 | 13:53 | E 15 | 16.09 | Fair | CLR | 22.2 | 7.2 | 38% | 76.02 | 1013.3 | |||||||
| 03 | 12:53 | E 15 | 16.09 | Fair | CLR | 21.7 | 6.7 | 38% | 76.05 | 1013.7 | |||||||
| 03 | 11:53 | E 15 | 16.09 | Fair | CLR | 21.1 | 6.7 | 39% | 76.1 | 1014.2 | |||||||
| 03 | 10:53 | E 13 | 16.09 | Fair | CLR | 20.6 | 7.2 | 21.1 | 8.3 | 42% | 76.12 | 1014.9 | |||||
| 03 | 09:53 | E 19 G 31 | 16.09 | Fair | CLR | 20 | 7.8 | 45% | 76.17 | 1015.4 | |||||||
| 03 | 08:53 | E 17 | 16.09 | Fair | CLR | 19.4 | 7.2 | 45% | 76.17 | 1015.4 | |||||||
| 03 | 07:53 | SE 17 | 16.09 | Fair | CLR | 18.3 | 7.8 | 51% | 76.17 | 1015.4 | |||||||
| 03 | 06:53 | SW 9 | 16.09 | Fair | CLR | 13.9 | 6.1 | 60% | 76.15 | 1015.1 | |||||||
| 03 | 05:53 | SW 7 | 16.09 | Fair | CLR | 8.9 | 6.1 | 83% | 8 | 76.12 | 1015.0 | ||||||
| 03 | 04:53 | S 7 | 16.09 | Fair | CLR | 10.6 | 5.6 | 15.6 | 8.9 | 71% | 76.15 | 1015.0 | |||||
| 03 | 03:53 | Vrbl 6 | 16.09 | Fair | CLR | 13.3 | 6.1 | 62% | 76.12 | 1014.9 | |||||||
| 03 | 02:53 | SW 15 | 16.09 | Fair | CLR | 13.9 | 6.1 | 60% | 76.12 | 1014.7 | |||||||
| 03 | 01:53 | SW 9 | 16.09 | Fair | CLR | 14.4 | 6.1 | 58% | 76.12 | 1014.7 | |||||||
| 03 | 00:53 | SW 11 | 16.09 | Fair | CLR | 15 | 6.7 | 58% | 76.12 | 1014.7 | |||||||
| 02 | 23:53 | SW 6 | 16.09 | Fair | CLR | 15 | 6.7 | 58% | 76.12 | 1014.8 | |||||||
| 02 | 22:53 | SW 11 | 16.09 | Fair | CLR | 15.6 | 6.7 | 23.9 | 12.2 | 56% | 76.12 | 1014.8 | |||||
| 02 | 21:53 | Calm | 16.09 | Fair | CLR | 14.4 | 7.8 | 65% | 76.12 | 1014.9 | |||||||
| 02 | 20:53 | W 7 | 16.09 | Fair | CLR | 17.2 | 7.8 | 54% | 76.07 | 1014.2 | |||||||
| 02 | 19:53 | S 7 | 16.09 | Fair | CLR | 21.7 | 5 | 34% | 76.05 | 1013.8 | |||||||
| 02 | 18:53 | S 9 | 16.09 | Fair | CLR | 23.9 | 5 | 29% | 25 | 76.07 | 1014.1 | ||||||
| 02 | 17:53 | E 7 | 16.09 | Fair | CLR | 23.3 | 5.6 | 32% | 76.1 | 1014.6 | |||||||
| 02 | 16:53 | E 9 | 16.09 | Fair | CLR | 23.9 | 5.6 | 23.9 | 18.9 | 31% | 25 | 76.1 | 1014.6 | ||||
| 02 | 15:53 | SE 7 | 16.09 | Fair | CLR | 23.3 | 6.1 | 33% | 76.17 | 1015.6 | |||||||
| 02 | 14:53 | Calm | 16.09 | Fair | CLR | 21.7 | 6.1 | 36% | 76.25 | 1016.6 | |||||||
| 02 | 13:53 | E 11 | 16.09 | Fair | CLR | 21.1 | 7.2 | 41% | 76.28 | 1016.9 | |||||||
| 02 | 12:53 | Vrbl 7 | 16.09 | Fair | CLR | 20.6 | 7.2 | 42% | 76.33 | 1017.4 | |||||||
| 02 | 11:53 | E 13 | 16.09 | Fair | CLR | 20 | 8.9 | 49% | 76.35 | 1017.9 | |||||||
| 02 | 10:53 | E 15 | 16.09 | Fair | CLR | 18.9 | 9.4 | 18.9 | 7.2 | 54% | 76.38 | 1018.3 | |||||
| 02 | 09:53 | E 15 | 16.09 | Fair | CLR | 16.7 | 8.9 | 60% | 76.38 | 1018.3 | |||||||
| 02 | 08:53 | E 7 | 16.09 | Fair | CLR | 12.8 | 10.6 | 87% | 76.38 | 1018.3 | |||||||
| 02 | 07:53 | Calm | 14.48 | Fair | CLR | 9.4 | 9.4 | 100% | 76.35 | 1018.0 | |||||||
| 02 | 06:53 | Calm | 12.87 | Mostly Cloudy | BKN100 | 8.3 | 7.8 | 97% | 76.33 | 1017.7 | |||||||
| 02 | 05:53 | Calm | 0.40 | Fog | VV001 | 7.8 | 7.8 | 100% | 76.3 | 1017.5 | |||||||
| 02 | 04:53 | Calm | 0.40 | Fog | VV001 | 8.3 | 8.3 | 10 | 7.8 | 100% | 76.3 | 1017.2 | |||||
| 02 | 03:53 | Calm | 9.66 | Fog/Mist | FEW002 FEW120 | 8.3 | 7.8 | 97% | 76.28 | 1016.9 | |||||||
| 02 | 02:53 | Calm | 11.27 | Mostly Cloudy | BKN100 | 8.3 | 8.3 | 100% | 76.28 | 1016.8 | |||||||
| 02 | 01:53 | W 6 | 16.09 | Fair | CLR | 8.9 | 7.8 | 93% | 76.28 | 1016.9 | |||||||
| 02 | 00:53 | W 7 | 16.09 | Mostly Cloudy | BKN110 | 9.4 | 8.3 | 93% | 9 | 76.28 | 1017.0 | ||||||
| 01 | 23:53 | W 15 | 16.09 | Mostly Cloudy | BKN110 | 10 | 8.3 | 89% | 8 | 76.28 | 1016.9 | ||||||
| 01 | 22:53 | NW 13 | 16.09 | Fair | CLR | 10 | 7.8 | 15 | 10 | 86% | 8 | 76.25 | 1016.8 | ||||
| 01 | 21:53 | W 15 | 16.09 | Fair | CLR | 11.1 | 8.3 | 83% | 76.23 | 1016.4 | |||||||
| 01 | 20:53 | W 13 | 16.09 | Fair | CLR | 11.7 | 8.3 | 80% | 76.23 | 1016.3 | |||||||
| 01 | 19:53 | W 13 | 16.09 | Fair | CLR | 12.8 | 8.9 | 77% | 76.2 | 1015.8 | |||||||
| 01 | 18:53 | Vrbl 9 | 16.09 | Fair | CLR | 13.9 | 8.9 | 72% | 76.17 | 1015.7 | |||||||
| 01 | 17:53 | W 13 | 16.09 | Fair | CLR | 15 | 9.4 | 69% | 76.2 | 1016.1 | |||||||
| 01 | 16:53 | NW 9 | 16.09 | Fair | CLR | 13.3 | 9.4 | 15.6 | 12.2 | 77% | 76.23 | 1016.3 | |||||
| 01 | 15:53 | W 9 | 16.09 | Fair | CLR | 14.4 | 10 | 75% | 76.25 | 1016.7 | |||||||
| Date | Time (pdt) | Wind (kph) | Vis. (km) | Weather | Sky Cond. | Air | Dwpt | Max. | Min. | Relative Humidity | Wind Chill (°C) | Heat Index (°C) | altimeter (cm) | sea level (mb) | 1 hr | 3 hr | 6 hr |
| 6 hour | |||||||||||||||||
| Temperature (ºC) | Pressure | Precipitation (cm) | |||||||||||||||